createdAt,value
2019-03-31T00:00:26.465Z,0.00
2019-03-31T00:01:26.367Z,0.00
2019-03-31T00:02:26.266Z,0.00
2019-03-31T00:03:26.183Z,0.00
2019-03-31T00:04:26.179Z,0.00
2019-03-31T00:05:25.971Z,0.00
2019-03-31T00:06:25.875Z,0.00
2019-03-31T00:07:25.774Z,0.00
2019-03-31T00:08:25.677Z,0.00
2019-03-31T00:09:25.598Z,0.00
2019-03-31T00:10:25.479Z,0.00
2019-03-31T00:11:25.484Z,0.00
2019-03-31T00:12:25.281Z,0.00
2019-03-31T00:13:25.189Z,0.00
2019-03-31T00:14:25.101Z,0.00
2019-03-31T00:15:24.983Z,0.00
2019-03-31T00:16:24.890Z,0.00
2019-03-31T00:17:24.788Z,0.00
2019-03-31T00:18:24.792Z,0.00
2019-03-31T00:19:25.328Z,0.00
2019-03-31T00:20:24.495Z,0.00
2019-03-31T00:21:24.398Z,0.00
2019-03-31T00:22:24.293Z,0.00
2019-03-31T00:23:24.195Z,0.00
2019-03-31T00:24:24.114Z,0.00
2019-03-31T00:25:24.097Z,0.00
2019-03-31T00:26:23.900Z,0.00
2019-03-31T00:27:23.804Z,0.00
2019-03-31T00:28:23.703Z,0.00
2019-03-31T00:29:23.621Z,0.00
2019-03-31T00:30:23.505Z,0.00
2019-03-31T00:31:23.403Z,0.00
2019-03-31T00:32:23.413Z,0.00
2019-03-31T00:33:23.207Z,0.00
2019-03-31T00:34:23.123Z,0.00
2019-03-31T00:35:23.009Z,0.00
2019-03-31T00:36:22.916Z,0.00
2019-03-31T00:37:22.810Z,0.00
2019-03-31T00:38:22.719Z,0.00
2019-03-31T00:39:22.746Z,0.00
2019-03-31T00:40:22.513Z,0.00
2019-03-31T00:41:22.503Z,0.00
2019-03-31T00:42:22.317Z,0.00
2019-03-31T00:43:22.217Z,0.00
2019-03-31T00:44:22.135Z,0.00
2019-03-31T00:45:22.148Z,0.00
2019-03-31T00:46:21.920Z,0.00
2019-03-31T00:47:21.823Z,0.00
2019-03-31T00:48:21.730Z,0.00
2019-03-31T00:49:21.643Z,0.00
2019-03-31T00:50:21.526Z,0.00
2019-03-31T00:51:21.425Z,0.00
2019-03-31T00:52:21.330Z,0.00
2019-03-31T00:53:21.333Z,0.00
2019-03-31T00:54:21.153Z,0.00
2019-03-31T00:55:21.031Z,0.00
2019-03-31T00:56:20.935Z,0.00
2019-03-31T00:57:20.848Z,0.00
2019-03-31T00:58:20.738Z,0.00
2019-03-31T00:59:20.651Z,0.00
2019-03-31T01:00:20.537Z,0.00
2019-03-31T01:01:20.439Z,0.00
2019-03-31T01:02:20.346Z,0.00
2019-03-31T01:03:20.241Z,0.00
2019-03-31T01:04:20.160Z,0.00
2019-03-31T01:05:20.048Z,0.00
2019-03-31T01:06:19.947Z,0.00
2019-03-31T01:07:19.846Z,0.00
2019-03-31T01:08:19.749Z,0.00
2019-03-31T01:09:19.666Z,0.00
2019-03-31T01:10:19.551Z,0.00
2019-03-31T01:11:19.452Z,0.00
2019-03-31T01:12:19.354Z,0.00
2019-03-31T01:13:19.252Z,0.00
2019-03-31T01:14:19.171Z,0.00
2019-03-31T01:15:19.056Z,0.00
2019-03-31T01:16:18.957Z,0.00
2019-03-31T01:17:19.165Z,0.00
2019-03-31T01:18:18.758Z,0.00
2019-03-31T01:19:18.680Z,0.00
2019-03-31T01:20:18.560Z,0.00
2019-03-31T01:21:18.464Z,0.00
2019-03-31T01:22:18.365Z,0.00
2019-03-31T01:23:18.262Z,0.00
2019-03-31T01:24:18.181Z,0.00
2019-03-31T01:25:18.071Z,0.00
2019-03-31T01:26:17.980Z,0.00
2019-03-31T01:27:17.869Z,0.00
2019-03-31T01:28:17.769Z,0.00
2019-03-31T01:29:17.687Z,0.00
2019-03-31T01:30:17.572Z,0.00
2019-03-31T01:31:17.471Z,0.00
2019-03-31T01:32:17.462Z,0.00
2019-03-31T01:33:17.274Z,0.00
2019-03-31T01:34:17.180Z,0.00
2019-03-31T01:35:17.104Z,0.00
2019-03-31T01:36:16.977Z,0.00
2019-03-31T01:37:19.966Z,0.00
2019-03-31T01:38:16.779Z,0.00
2019-03-31T01:39:16.683Z,0.00
2019-03-31T01:40:16.598Z,0.00
2019-03-31T01:41:16.483Z,0.00
2019-03-31T01:42:16.384Z,0.00
2019-03-31T01:43:16.282Z,0.00
2019-03-31T01:44:16.185Z,0.00
2019-03-31T01:45:16.104Z,0.00
2019-03-31T01:46:15.986Z,0.00
2019-03-31T01:47:15.888Z,0.00
2019-03-31T01:48:15.790Z,0.00
2019-03-31T01:49:15.694Z,0.00
2019-03-31T01:50:15.607Z,0.00
2019-03-31T01:51:15.488Z,0.00
2019-03-31T01:52:15.392Z,0.00
2019-03-31T01:53:15.293Z,0.00
2019-03-31T01:54:15.205Z,0.00
2019-03-31T01:55:15.110Z,0.00
2019-03-31T01:56:14.994Z,0.00
2019-03-31T01:57:14.896Z,0.00
2019-03-31T01:58:14.793Z,0.00
2019-03-31T01:59:14.694Z,0.00
2019-03-31T02:00:14.613Z,0.00
2019-03-31T02:01:14.496Z,0.00
2019-03-31T02:02:14.403Z,0.00
2019-03-31T02:03:14.298Z,0.00
2019-03-31T02:04:14.199Z,0.00
2019-03-31T02:05:14.118Z,0.00
2019-03-31T02:06:14.004Z,0.00
2019-03-31T02:07:13.905Z,0.00
2019-03-31T02:08:13.808Z,0.00
2019-03-31T02:09:13.717Z,0.00
2019-03-31T02:10:13.622Z,0.00
2019-03-31T02:11:13.503Z,0.00
2019-03-31T02:12:13.403Z,0.00
2019-03-31T02:13:13.303Z,0.00
2019-03-31T02:14:13.211Z,0.00
2019-03-31T02:15:13.122Z,0.00
2019-03-31T02:16:13.122Z,0.00
2019-03-31T02:17:12.906Z,0.00
2019-03-31T02:18:12.808Z,0.00
2019-03-31T02:19:12.711Z,0.00
2019-03-31T02:20:12.629Z,0.00
2019-03-31T02:21:12.511Z,0.00
2019-03-31T02:22:12.411Z,0.00
2019-03-31T02:23:12.412Z,0.00
2019-03-31T02:24:12.212Z,0.00
2019-03-31T02:25:12.128Z,0.00
2019-03-31T02:26:12.015Z,0.00
2019-03-31T02:27:11.912Z,0.00
2019-03-31T02:28:11.815Z,0.00
2019-03-31T02:29:11.713Z,0.00
2019-03-31T02:30:11.752Z,0.00
2019-03-31T02:31:11.522Z,0.00
2019-03-31T02:32:23.715Z,0.00
2019-03-31T02:33:11.320Z,0.00
2019-03-31T02:34:11.222Z,0.00
2019-03-31T02:35:11.137Z,0.00
2019-03-31T02:36:11.024Z,0.00
2019-03-31T02:37:11.022Z,0.00
2019-03-31T02:38:10.829Z,0.00
2019-03-31T02:39:10.723Z,0.00
2019-03-31T02:40:10.639Z,0.00
2019-03-31T02:41:10.525Z,0.00
2019-03-31T02:42:10.427Z,0.00
2019-03-31T02:43:10.327Z,0.00
2019-03-31T02:44:10.338Z,0.00
2019-03-31T02:45:10.145Z,0.00
2019-03-31T02:46:10.029Z,0.00
2019-03-31T02:47:09.932Z,0.00
2019-03-31T02:48:09.830Z,0.00
2019-03-31T02:49:09.731Z,0.00
2019-03-31T02:50:09.648Z,0.00
2019-03-31T02:51:09.638Z,0.00
2019-03-31T02:52:09.434Z,0.00
2019-03-31T02:53:09.336Z,0.00
2019-03-31T02:54:09.236Z,0.00
2019-03-31T02:55:09.153Z,0.00
2019-03-31T02:56:09.040Z,0.00
2019-03-31T02:57:08.937Z,0.00
2019-03-31T02:58:08.950Z,0.00
2019-03-31T02:59:08.741Z,0.00
2019-03-31T03:00:08.664Z,0.00
2019-03-31T03:01:08.541Z,0.00
2019-03-31T03:02:08.446Z,0.00
2019-03-31T03:03:08.342Z,0.00
2019-03-31T03:04:08.379Z,0.00
2019-03-31T03:05:18.826Z,0.00
2019-03-31T03:06:08.065Z,0.00
2019-03-31T03:07:07.954Z,0.00
2019-03-31T03:08:07.852Z,0.00
2019-03-31T03:09:07.749Z,0.00
2019-03-31T03:10:07.686Z,0.00
2019-03-31T03:11:07.653Z,0.00
2019-03-31T03:12:07.454Z,0.00
2019-03-31T03:13:07.354Z,0.00
2019-03-31T03:14:07.253Z,0.00
2019-03-31T03:15:07.163Z,0.00
2019-03-31T03:16:07.071Z,0.00
2019-03-31T03:17:06.962Z,0.00
2019-03-31T03:18:06.856Z,0.00
2019-03-31T03:19:06.869Z,0.00
2019-03-31T03:20:06.680Z,0.00
2019-03-31T03:21:06.563Z,0.00
2019-03-31T03:22:06.464Z,0.00
2019-03-31T03:23:06.362Z,0.00
2019-03-31T03:24:06.269Z,0.00
2019-03-31T03:25:06.176Z,0.00
2019-03-31T03:26:06.088Z,0.00
2019-03-31T03:27:05.983Z,0.00
2019-03-31T03:28:05.866Z,0.00
2019-03-31T03:29:05.773Z,0.00
2019-03-31T03:30:05.675Z,0.00
2019-03-31T03:31:13.921Z,0.00
2019-03-31T03:32:05.606Z,0.00
2019-03-31T03:33:16.415Z,0.00
2019-03-31T03:34:05.276Z,0.00
2019-03-31T03:35:05.189Z,0.00
2019-03-31T03:36:05.096Z,0.00
2019-03-31T03:37:04.977Z,0.00
2019-03-31T03:38:04.882Z,0.00
2019-03-31T03:39:04.782Z,0.00
2019-03-31T03:40:04.681Z,0.00
2019-03-31T03:41:04.603Z,0.00
2019-03-31T03:42:04.484Z,0.00
2019-03-31T03:43:04.386Z,0.00
2019-03-31T03:44:04.289Z,0.00
2019-03-31T03:45:04.204Z,0.00
2019-03-31T03:46:04.107Z,0.00
2019-03-31T03:47:03.991Z,0.00
2019-03-31T03:48:03.899Z,0.00
2019-03-31T03:49:03.905Z,0.00
2019-03-31T03:50:03.700Z,0.00
2019-03-31T03:51:03.615Z,0.00
2019-03-31T03:52:03.500Z,0.00
2019-03-31T03:53:03.399Z,0.00
2019-03-31T03:54:03.309Z,0.00
2019-03-31T03:55:03.199Z,0.00
2019-03-31T03:56:03.121Z,0.00
2019-03-31T03:57:03.005Z,0.00
2019-03-31T03:58:02.930Z,0.00
2019-03-31T03:59:02.841Z,0.00
2019-03-31T04:00:02.707Z,0.00
2019-03-31T04:01:02.625Z,0.00
2019-03-31T04:02:02.512Z,0.00
2019-03-31T04:03:02.413Z,0.00
2019-03-31T04:04:02.320Z,0.00
2019-03-31T04:05:02.232Z,0.00
2019-03-31T04:06:02.155Z,0.00
2019-03-31T04:07:02.021Z,0.00
2019-03-31T04:08:01.933Z,0.00
2019-03-31T04:09:01.821Z,0.00
2019-03-31T04:10:01.725Z,0.00
2019-03-31T04:11:01.641Z,0.00
2019-03-31T04:12:01.523Z,0.00
2019-03-31T04:13:01.424Z,0.00
2019-03-31T04:14:01.332Z,0.00
2019-03-31T04:15:01.232Z,0.00
2019-03-31T04:16:01.152Z,0.00
2019-03-31T04:17:01.034Z,0.00
2019-03-31T04:18:00.936Z,4.00
2019-03-31T04:19:00.833Z,4.00
2019-03-31T04:20:00.741Z,0.00
2019-03-31T04:21:00.654Z,4.00
2019-03-31T04:22:00.541Z,0.00
2019-03-31T04:23:00.439Z,4.00
2019-03-31T04:24:00.355Z,4.00
2019-03-31T04:25:00.691Z,4.00
2019-03-31T04:26:00.163Z,4.00
2019-03-31T04:27:00.049Z,8.00
2019-03-31T04:27:59.951Z,8.00
2019-03-31T04:28:59.858Z,12.00
2019-03-31T04:29:59.750Z,12.00
2019-03-31T04:30:59.677Z,20.00
2019-03-31T04:31:59.554Z,20.00
2019-03-31T04:32:59.454Z,28.00
2019-03-31T04:33:59.358Z,28.00
2019-03-31T04:34:59.262Z,36.00
2019-03-31T04:35:59.176Z,44.00
2019-03-31T04:36:59.062Z,52.00
2019-03-31T04:37:58.962Z,56.00
2019-03-31T04:39:00.299Z,68.00
2019-03-31T04:39:58.765Z,80.00
2019-03-31T04:40:58.682Z,92.00
2019-03-31T04:41:58.564Z,108.00
2019-03-31T04:42:58.467Z,120.00
2019-03-31T04:43:58.371Z,136.00
2019-03-31T04:44:58.270Z,152.00
2019-03-31T04:45:58.192Z,168.00
2019-03-31T04:46:58.077Z,192.00
2019-03-31T04:47:57.976Z,216.00
2019-03-31T04:48:57.877Z,240.00
2019-03-31T04:49:57.777Z,272.00
2019-03-31T04:50:58.114Z,300.00
2019-03-31T04:51:57.581Z,328.00
2019-03-31T04:52:57.480Z,360.00
2019-03-31T04:53:57.382Z,392.00
2019-03-31T04:54:57.285Z,428.00
2019-03-31T04:55:57.205Z,464.00
2019-03-31T04:56:57.085Z,500.00
2019-03-31T04:57:56.988Z,540.00
2019-03-31T04:58:56.888Z,588.00
2019-03-31T04:59:56.788Z,636.00
2019-03-31T05:00:56.706Z,688.00
2019-03-31T05:01:56.591Z,744.00
2019-03-31T05:02:56.498Z,792.00
2019-03-31T05:04:04.569Z,844.00
2019-03-31T05:04:56.294Z,892.00
2019-03-31T05:05:56.232Z,936.00
2019-03-31T05:06:56.110Z,996.00
2019-03-31T05:07:55.996Z,1052.00
2019-03-31T05:08:55.897Z,1120.00
2019-03-31T05:09:55.800Z,1180.00
2019-03-31T05:10:55.703Z,1244.00
2019-03-31T05:11:55.617Z,1308.00
2019-03-31T05:12:55.504Z,1372.00
2019-03-31T05:13:55.405Z,1440.00
2019-03-31T05:14:55.304Z,1516.00
2019-03-31T05:15:55.207Z,1596.00
2019-03-31T05:16:55.130Z,1692.00
2019-03-31T05:17:55.121Z,1796.00
2019-03-31T05:18:54.907Z,1888.00
2019-03-31T05:19:54.817Z,1980.00
2019-03-31T05:20:54.715Z,2052.00
2019-03-31T05:21:54.629Z,2112.00
2019-03-31T05:22:54.510Z,2172.00
2019-03-31T05:23:54.411Z,2244.00
2019-03-31T05:24:54.420Z,2336.00
2019-03-31T05:25:54.218Z,2416.00
2019-03-31T05:26:54.130Z,2520.00
2019-03-31T05:27:54.018Z,2640.00
2019-03-31T05:28:53.915Z,2796.00
2019-03-31T05:29:53.815Z,2976.00
2019-03-31T05:30:53.717Z,3116.00
2019-03-31T05:31:53.739Z,3264.00
2019-03-31T05:32:53.518Z,3384.00
2019-03-31T05:33:53.421Z,3444.00
2019-03-31T05:34:53.325Z,3476.00
2019-03-31T05:35:53.240Z,3496.00
2019-03-31T05:36:53.141Z,3500.00
2019-03-31T05:37:53.025Z,3536.00
2019-03-31T05:38:53.025Z,3640.00
2019-03-31T05:39:52.824Z,3780.00
2019-03-31T05:40:52.731Z,4028.00
2019-03-31T05:41:52.642Z,4220.00
2019-03-31T05:42:52.530Z,4428.00
2019-03-31T05:44:05.117Z,4740.00
2019-03-31T05:44:52.333Z,5464.00
2019-03-31T05:45:52.569Z,5248.00
2019-03-31T05:46:52.148Z,5472.00
2019-03-31T05:47:52.034Z,6456.00
2019-03-31T05:48:51.937Z,7236.00
2019-03-31T05:49:51.838Z,7152.00
2019-03-31T05:50:51.737Z,6728.00
2019-03-31T05:51:51.655Z,6548.00
2019-03-31T05:52:51.640Z,7076.00
2019-03-31T05:53:51.441Z,6116.00
2019-03-31T05:54:51.358Z,6080.00
2019-03-31T05:55:51.246Z,6096.00
2019-03-31T05:56:51.166Z,6188.00
2019-03-31T05:57:51.063Z,6268.00
2019-03-31T05:58:50.952Z,6300.00
2019-03-31T05:59:50.953Z,7276.00
2019-03-31T06:00:50.754Z,6980.00
2019-03-31T06:01:50.675Z,8828.00
2019-03-31T06:02:50.557Z,6912.00
2019-03-31T06:03:50.462Z,7128.00
2019-03-31T06:04:50.363Z,7264.00
2019-03-31T06:05:50.265Z,7420.00
2019-03-31T06:06:50.288Z,8124.00
2019-03-31T06:07:50.069Z,7500.00
2019-03-31T06:08:49.973Z,10396.00
2019-03-31T06:09:49.878Z,8600.00
2019-03-31T06:10:49.775Z,12416.00
2019-03-31T06:11:53.200Z,8624.00
2019-03-31T06:12:49.582Z,8140.00
2019-03-31T06:13:49.584Z,9232.00
2019-03-31T06:14:49.390Z,8092.00
2019-03-31T06:15:49.296Z,7988.00
2019-03-31T06:16:49.210Z,8052.00
2019-03-31T06:17:49.109Z,8276.00
2019-03-31T06:18:49.003Z,8016.00
2019-03-31T06:19:48.902Z,7988.00
2019-03-31T06:20:48.922Z,7920.00
2019-03-31T06:21:48.726Z,7916.00
2019-03-31T06:22:48.613Z,8052.00
2019-03-31T06:23:48.516Z,8152.00
2019-03-31T06:24:48.422Z,8100.00
2019-03-31T06:25:48.331Z,7908.00
2019-03-31T06:26:48.242Z,7820.00
2019-03-31T06:27:48.130Z,7920.00
2019-03-31T06:28:48.037Z,8288.00
2019-03-31T06:29:47.939Z,8644.00
2019-03-31T06:30:47.843Z,8692.00
2019-03-31T06:31:47.762Z,8692.00
2019-03-31T06:32:47.653Z,8828.00
2019-03-31T06:33:47.555Z,9256.00
2019-03-31T06:34:48.070Z,9744.00
2019-03-31T06:35:47.362Z,10048.00
2019-03-31T06:36:47.285Z,10356.00
2019-03-31T06:37:47.172Z,10956.00
2019-03-31T06:38:47.077Z,14668.00
2019-03-31T06:39:46.979Z,15480.00
2019-03-31T06:40:46.884Z,17888.00
2019-03-31T06:41:46.804Z,11100.00
2019-03-31T06:42:46.694Z,10000.00
2019-03-31T06:43:46.600Z,9440.00
2019-03-31T06:44:46.501Z,8768.00
2019-03-31T06:45:46.406Z,8088.00
2019-03-31T06:46:46.327Z,7656.00
2019-03-31T06:47:46.218Z,7580.00
2019-03-31T06:48:46.120Z,7836.00
2019-03-31T06:49:46.026Z,8380.00
2019-03-31T06:50:45.933Z,9072.00
2019-03-31T06:51:45.842Z,10048.00
2019-03-31T06:52:45.757Z,10864.00
2019-03-31T06:53:45.648Z,11800.00
2019-03-31T06:54:45.551Z,12604.00
2019-03-31T06:55:45.460Z,13472.00
2019-03-31T06:56:47.136Z,14444.00
2019-03-31T06:57:45.351Z,15532.00
2019-03-31T06:58:45.172Z,34208.00
2019-03-31T06:59:45.080Z,29216.00
2019-03-31T07:00:44.993Z,27648.00
2019-03-31T07:01:44.891Z,27264.00
2019-03-31T07:02:44.809Z,26336.00
2019-03-31T07:03:44.698Z,20384.00
2019-03-31T07:04:44.606Z,25536.00
2019-03-31T07:05:44.516Z,15504.00
2019-03-31T07:06:44.419Z,14328.00
2019-03-31T07:07:44.344Z,16132.00
2019-03-31T07:08:44.235Z,13932.00
2019-03-31T07:09:44.141Z,13920.00
2019-03-31T07:10:44.049Z,14016.00
2019-03-31T07:11:43.954Z,14336.00
2019-03-31T07:12:43.876Z,14736.00
2019-03-31T07:13:43.766Z,15092.00
2019-03-31T07:14:43.674Z,15372.00
2019-03-31T07:15:43.607Z,15800.00
2019-03-31T07:16:43.489Z,24896.00
2019-03-31T07:17:43.415Z,15584.00
2019-03-31T07:18:43.304Z,17376.00
2019-03-31T07:19:43.214Z,15528.00
2019-03-31T07:20:43.121Z,16120.00
2019-03-31T07:21:43.032Z,19200.00
2019-03-31T07:22:42.953Z,16744.00
2019-03-31T07:23:42.845Z,16844.00
2019-03-31T07:24:42.753Z,16836.00
2019-03-31T07:25:42.662Z,17032.00
2019-03-31T07:26:42.571Z,18464.00
2019-03-31T07:27:42.496Z,28672.00
2019-03-31T07:28:42.386Z,28192.00
2019-03-31T07:29:42.293Z,21920.00
2019-03-31T07:30:42.202Z,27008.00
2019-03-31T07:31:42.111Z,26240.00
2019-03-31T07:32:42.130Z,33440.00
2019-03-31T07:33:41.930Z,26144.00
2019-03-31T07:34:41.835Z,36320.00
2019-03-31T07:35:41.747Z,36448.00
2019-03-31T07:36:41.657Z,35520.00
2019-03-31T07:37:47.527Z,33600.00
2019-03-31T07:38:41.479Z,21408.00
2019-03-31T07:39:41.500Z,26624.00
2019-03-31T07:40:41.294Z,19552.00
2019-03-31T07:41:41.470Z,19872.00
2019-03-31T07:42:41.128Z,23648.00
2019-03-31T07:43:41.123Z,21696.00
2019-03-31T07:44:40.934Z,22080.00
2019-03-31T07:45:40.847Z,22880.00
2019-03-31T07:46:40.756Z,24736.00
2019-03-31T07:47:40.682Z,23296.00
2019-03-31T07:48:40.574Z,23232.00
2019-03-31T07:49:40.487Z,24192.00
2019-03-31T07:50:40.506Z,32896.00
2019-03-31T07:51:40.306Z,33472.00
2019-03-31T07:52:40.237Z,22688.00
2019-03-31T07:53:40.127Z,21472.00
2019-03-31T07:54:40.039Z,22976.00
2019-03-31T07:55:39.950Z,19392.00
2019-03-31T07:56:39.859Z,25312.00
2019-03-31T07:57:39.807Z,18592.00
2019-03-31T07:58:39.679Z,18816.00
2019-03-31T07:59:39.595Z,19232.00
2019-03-31T08:00:39.501Z,19456.00
2019-03-31T08:01:39.415Z,19616.00
2019-03-31T08:02:39.338Z,20000.00
2019-03-31T08:03:39.239Z,20512.00
2019-03-31T08:04:39.246Z,19872.00
2019-03-31T08:05:39.057Z,19712.00
2019-03-31T08:06:38.965Z,19136.00
2019-03-31T08:07:38.892Z,18848.00
2019-03-31T08:08:38.785Z,18208.00
2019-03-31T08:09:38.700Z,17760.00
2019-03-31T08:10:38.605Z,17664.00
2019-03-31T08:11:38.621Z,18144.00
2019-03-31T08:12:38.446Z,19328.00
2019-03-31T08:13:38.338Z,20768.00
2019-03-31T08:14:38.247Z,21728.00
2019-03-31T08:15:38.159Z,22624.00
2019-03-31T08:16:38.092Z,23040.00
2019-03-31T08:17:37.992Z,23616.00
2019-03-31T08:18:37.886Z,24384.00
2019-03-31T08:19:37.798Z,30624.00
2019-03-31T08:20:37.704Z,27584.00
2019-03-31T08:21:37.617Z,29088.00
2019-03-31T08:22:37.540Z,24672.00
2019-03-31T08:23:37.439Z,25504.00
2019-03-31T08:24:37.451Z,24832.00
2019-03-31T08:25:37.256Z,25024.00
2019-03-31T08:26:37.163Z,28288.00
2019-03-31T08:27:37.090Z,27520.00
2019-03-31T08:28:36.983Z,27936.00
2019-03-31T08:29:36.896Z,33376.00
2019-03-31T08:30:36.930Z,65824.00
2019-03-31T08:31:36.713Z,31616.00
2019-03-31T08:32:36.642Z,26624.00
2019-03-31T08:33:36.538Z,24032.00
2019-03-31T08:34:36.441Z,26144.00
2019-03-31T08:35:46.707Z,28896.00
2019-03-31T08:36:36.263Z,49760.00
2019-03-31T08:37:36.176Z,46144.00
2019-03-31T08:38:36.099Z,52800.00
2019-03-31T08:39:35.997Z,62784.00
2019-03-31T08:40:35.908Z,62944.00
2019-03-31T08:41:35.816Z,67808.00
2019-03-31T08:42:35.728Z,73600.00
2019-03-31T08:43:35.652Z,71008.00
2019-03-31T08:44:35.815Z,69952.00
2019-03-31T08:45:35.457Z,72064.00
2019-03-31T08:46:35.368Z,74560.00
2019-03-31T08:47:35.286Z,76352.00
2019-03-31T08:48:35.211Z,77728.00
2019-03-31T08:49:35.105Z,74848.00
2019-03-31T08:50:35.117Z,64096.00
2019-03-31T08:51:35.030Z,51680.00
2019-03-31T08:52:34.842Z,52960.00
2019-03-31T08:53:34.772Z,46624.00
2019-03-31T08:54:34.666Z,37664.00
2019-03-31T08:55:34.581Z,39488.00
2019-03-31T08:56:34.495Z,30496.00
2019-03-31T08:57:34.511Z,29408.00
2019-03-31T08:58:34.336Z,29984.00
2019-03-31T08:59:34.234Z,29728.00
2019-03-31T09:00:34.146Z,28064.00
2019-03-31T09:01:34.064Z,33856.00
2019-03-31T09:02:34.037Z,29920.00
2019-03-31T09:03:33.902Z,28704.00
2019-03-31T09:04:33.800Z,29824.00
2019-03-31T09:05:33.714Z,31712.00
2019-03-31T09:06:33.654Z,32672.00
2019-03-31T09:07:33.543Z,34528.00
2019-03-31T09:08:33.472Z,32704.00
2019-03-31T09:09:33.366Z,33856.00
2019-03-31T09:10:33.277Z,51040.00
2019-03-31T09:11:33.292Z,40928.00
2019-03-31T09:12:33.104Z,35968.00
2019-03-31T09:13:33.033Z,35104.00
2019-03-31T09:14:32.928Z,39680.00
2019-03-31T09:15:32.846Z,53664.00
2019-03-31T09:16:32.753Z,54048.00
2019-03-31T09:17:32.788Z,37408.00
2019-03-31T09:18:32.594Z,28832.00
2019-03-31T09:19:32.496Z,28576.00
2019-03-31T09:20:32.403Z,49952.00
2019-03-31T09:21:32.321Z,30784.00
2019-03-31T09:22:32.230Z,36192.00
2019-03-31T09:23:32.162Z,38432.00
2019-03-31T09:24:32.064Z,39136.00
2019-03-31T09:25:31.974Z,65536.00
2019-03-31T09:26:31.884Z,55744.00
2019-03-31T09:27:31.795Z,37632.00
2019-03-31T09:28:31.727Z,36480.00
2019-03-31T09:29:31.625Z,49920.00
2019-03-31T09:30:31.537Z,38880.00
2019-03-31T09:31:31.458Z,42336.00
2019-03-31T09:32:31.365Z,33728.00
2019-03-31T09:33:31.295Z,33728.00
2019-03-31T09:34:31.188Z,39744.00
2019-03-31T09:35:31.101Z,40896.00
2019-03-31T09:36:31.017Z,36736.00
2019-03-31T09:37:30.932Z,54624.00
2019-03-31T09:38:30.960Z,36256.00
2019-03-31T09:39:30.756Z,37088.00
2019-03-31T09:40:30.669Z,36064.00
2019-03-31T09:41:30.582Z,55488.00
2019-03-31T09:42:30.510Z,34688.00
2019-03-31T09:43:30.428Z,37088.00
2019-03-31T09:44:30.518Z,40544.00
2019-03-31T09:45:30.336Z,40352.00
2019-03-31T09:46:30.150Z,71232.00
2019-03-31T09:47:30.063Z,70144.00
2019-03-31T09:48:29.994Z,69152.00
2019-03-31T09:49:29.891Z,68928.00
2019-03-31T09:50:29.803Z,66688.00
2019-03-31T09:51:29.719Z,67104.00
2019-03-31T09:52:29.739Z,69664.00
2019-03-31T09:53:29.561Z,71328.00
2019-03-31T09:54:29.458Z,69184.00
2019-03-31T09:55:29.372Z,68096.00
2019-03-31T09:56:29.287Z,69824.00
2019-03-31T09:57:29.204Z,73184.00
2019-03-31T09:58:29.135Z,69088.00
2019-03-31T09:59:29.035Z,74432.00
2019-03-31T10:00:28.950Z,73952.00
2019-03-31T10:01:28.862Z,72416.00
2019-03-31T10:02:28.777Z,75648.00
2019-03-31T10:03:28.709Z,73728.00
2019-03-31T10:04:28.670Z,54368.00
2019-03-31T10:05:28.527Z,59040.00
2019-03-31T10:06:30.354Z,41728.00
2019-03-31T10:07:28.359Z,49600.00
2019-03-31T10:08:28.291Z,39936.00
2019-03-31T10:09:28.267Z,62240.00
2019-03-31T10:10:28.106Z,39424.00
2019-03-31T10:11:28.027Z,34656.00
2019-03-31T10:12:27.939Z,44288.00
2019-03-31T10:13:27.875Z,39008.00
2019-03-31T10:14:27.769Z,38272.00
2019-03-31T10:15:27.685Z,41504.00
2019-03-31T10:16:27.612Z,46944.00
2019-03-31T10:17:27.518Z,49184.00
2019-03-31T10:18:27.435Z,52832.00
2019-03-31T10:19:27.364Z,44352.00
2019-03-31T10:20:27.260Z,39040.00
2019-03-31T10:21:27.479Z,39808.00
2019-03-31T10:22:27.091Z,39008.00
2019-03-31T10:23:27.022Z,38368.00
2019-03-31T10:24:26.923Z,40992.00
2019-03-31T10:25:26.837Z,48256.00
2019-03-31T10:26:32.373Z,53600.00
2019-03-31T10:27:26.754Z,55328.00
2019-03-31T10:28:26.686Z,59872.00
2019-03-31T10:29:26.513Z,59584.00
2019-03-31T10:30:26.407Z,46848.00
2019-03-31T10:31:26.322Z,47808.00
2019-03-31T10:32:26.239Z,52192.00
2019-03-31T10:33:26.165Z,54560.00
2019-03-31T10:34:26.080Z,47104.00
2019-03-31T10:35:26.082Z,50816.00
2019-03-31T10:36:25.896Z,68864.00
2019-03-31T10:37:25.807Z,53792.00
2019-03-31T10:38:25.725Z,60704.00
2019-03-31T10:39:25.655Z,60224.00
2019-03-31T10:40:25.552Z,73440.00
2019-03-31T10:41:25.464Z,68608.00
2019-03-31T10:42:25.379Z,60896.00
2019-03-31T10:43:25.296Z,57184.00
2019-03-31T10:44:25.224Z,46592.00
2019-03-31T10:45:25.120Z,81280.00
2019-03-31T10:46:25.034Z,60096.00
2019-03-31T10:47:24.948Z,59712.00
2019-03-31T10:48:24.871Z,49536.00
2019-03-31T10:49:24.795Z,57504.00
2019-03-31T10:50:24.691Z,62624.00
2019-03-31T10:51:24.606Z,89792.00
2019-03-31T10:52:24.522Z,77056.00
2019-03-31T10:53:24.435Z,84960.00
2019-03-31T10:54:24.365Z,55392.00
2019-03-31T10:55:24.263Z,91424.00
2019-03-31T10:56:24.178Z,54144.00
2019-03-31T10:57:24.096Z,72576.00
2019-03-31T10:58:24.007Z,70272.00
2019-03-31T10:59:23.937Z,82976.00
2019-03-31T11:00:23.840Z,85632.00
2019-03-31T11:01:23.753Z,88320.00
2019-03-31T11:02:23.670Z,87328.00
2019-03-31T11:03:23.582Z,84896.00
2019-03-31T11:04:23.515Z,81856.00
2019-03-31T11:05:23.412Z,74336.00
2019-03-31T11:06:23.331Z,44800.00
2019-03-31T11:07:23.247Z,64800.00
2019-03-31T11:08:23.163Z,48896.00
2019-03-31T11:09:23.096Z,86912.00
2019-03-31T11:10:22.992Z,72416.00
2019-03-31T11:11:22.909Z,80896.00
2019-03-31T11:12:22.824Z,92224.00
2019-03-31T11:13:22.742Z,89824.00
2019-03-31T11:14:22.672Z,86080.00
2019-03-31T11:15:22.574Z,88672.00
2019-03-31T11:16:22.489Z,86880.00
2019-03-31T11:17:22.406Z,85344.00
2019-03-31T11:18:22.328Z,71872.00
2019-03-31T11:19:22.257Z,83104.00
2019-03-31T11:20:22.159Z,88928.00
2019-03-31T11:21:22.074Z,91264.00
2019-03-31T11:22:21.991Z,87872.00
2019-03-31T11:23:21.907Z,89376.00
2019-03-31T11:24:21.841Z,82496.00
2019-03-31T11:25:26.124Z,87680.00
2019-03-31T11:26:21.660Z,57216.00
2019-03-31T11:27:21.578Z,65056.00
2019-03-31T11:28:21.496Z,50944.00
2019-03-31T11:29:21.431Z,46976.00
2019-03-31T11:30:21.328Z,40192.00
2019-03-31T11:31:21.244Z,37088.00
2019-03-31T11:32:21.162Z,26976.00
2019-03-31T11:33:21.180Z,25376.00
2019-03-31T11:34:21.024Z,29184.00
2019-03-31T11:35:20.912Z,47456.00
2019-03-31T11:36:20.830Z,30304.00
2019-03-31T11:37:20.748Z,31136.00
2019-03-31T11:38:20.665Z,39136.00
2019-03-31T11:39:20.595Z,35808.00
2019-03-31T11:40:20.494Z,34176.00
2019-03-31T11:41:20.411Z,50368.00
2019-03-31T11:42:20.322Z,31136.00
2019-03-31T11:43:20.237Z,30592.00
2019-03-31T11:44:20.271Z,34624.00
2019-03-31T11:45:20.068Z,42752.00
2019-03-31T11:46:19.980Z,51456.00
2019-03-31T11:47:19.897Z,40608.00
2019-03-31T11:48:19.812Z,47840.00
2019-03-31T11:49:19.746Z,37728.00
2019-03-31T11:50:19.636Z,67872.00
2019-03-31T11:51:19.550Z,63872.00
2019-03-31T11:52:19.466Z,85664.00
2019-03-31T11:53:19.378Z,78240.00
2019-03-31T11:54:19.309Z,34656.00
2019-03-31T11:55:19.204Z,87712.00
2019-03-31T11:56:19.149Z,85728.00
2019-03-31T11:57:19.037Z,82432.00
2019-03-31T11:58:18.945Z,84768.00
2019-03-31T11:59:20.821Z,84224.00
2019-03-31T12:00:18.774Z,81248.00
2019-03-31T12:01:18.691Z,81952.00
2019-03-31T12:02:26.988Z,86272.00
2019-03-31T12:03:18.517Z,85280.00
2019-03-31T12:04:18.448Z,75552.00
2019-03-31T12:05:18.463Z,59872.00
2019-03-31T12:06:18.262Z,73152.00
2019-03-31T12:07:27.767Z,69440.00
2019-03-31T12:08:18.093Z,69824.00
2019-03-31T12:09:18.023Z,66656.00
2019-03-31T12:10:19.872Z,21728.00
2019-03-31T12:11:17.838Z,29248.00
2019-03-31T12:12:17.862Z,67648.00
2019-03-31T12:13:17.670Z,70144.00
2019-03-31T12:14:17.589Z,28832.00
2019-03-31T12:15:17.524Z,19488.00
2019-03-31T12:16:17.413Z,59296.00
2019-03-31T12:17:17.328Z,72448.00
2019-03-31T12:18:17.242Z,45792.00
2019-03-31T12:19:20.443Z,70464.00
2019-03-31T12:20:17.090Z,29952.00